Ana Sayfa
METAR-TAF:

METAR-TAF

Havaalanları :

Port Macquarie, Avustralya

Enlem: 31-26-09S, Boylam: 152-51-48E, yükseklik: 5 m

Güncel hava durumu gözlemi

Rapor saat 11:30 UTC de 33 dakika önce yapıldı.
Rüzgar güney/güneybatıdan 6 kt
Sıcaklık 25°C
Nem 89%
Basınç 1016 hPa
Görüş mesafesi 10 km veya daha fazla
1400 ft yükseklikte parçalı çok bulutlu
4900 ft yükseklikte çok bulutlu

METAR: YPMQ 291130Z AUTO 20006KT 9999 // BKN014 OVC049 25/23 Q1016

Saat: 23:03 (12:03 UTC)


TAF: eksik

4.000'den fazla havaalanı için hava durumu gözlemleri ve tahminleri (METAR ve TAF raporları).

Kullanılabilir istasyonlar harita üzerinde sarı ve kırmızı noktalarla gösterilir.

İstasyonun adını görmek için fareyi noktanın üzerinde gezdirin.

Sonrasında hava gözlem ve tahminlerini görmek için tıklayın.

Haritayı değiştirmek için: yaklaştırmak için siyah artı işaretli yeşil düğmeye ve uzaklaştırmak için de eksi işaretli düğmeye hızla tıklayın; bitişik haritalar için yeşil okları kullanın.


METAR-TAF: